Time;durP1;ratioP1;P1;durP2;ratioP2;P2;SDS_P1;SDS_P2;PMS_P1;PMS_P2;Temp;Humidity;BMP_temperature;BMP_pressure;BME280_temperature;BME280_humidity;BME280_pressure;Samples;Min_cycle;Max_cycle;Signal;HPM_P1;HPM_P2
2022/03/07 00:01:53;;;;;;;8.02;3.33;;;;;;;2.26;87.99;101976.72;4977726;28;20059;-74
2022/03/07 00:04:19;;;;;;;7.65;3.55;;;;;;;2.24;87.74;101981.50;4972407;28;20030;-75
2022/03/07 00:06:45;;;;;;;10.80;3.00;;;;;;;2.20;87.79;101987.59;4969525;28;20039;-74
2022/03/07 00:09:11;;;;;;;6.80;3.15;;;;;;;2.19;87.85;101983.38;4970477;28;20113;-74
2022/03/07 00:11:37;;;;;;;4.15;2.58;;;;;;;2.18;88.24;101995.84;4940920;28;20130;-74
2022/03/07 00:14:03;;;;;;;10.93;3.55;;;;;;;2.16;88.27;101989.19;4964046;28;20031;-74
2022/03/07 00:16:30;;;;;;;7.30;3.17;;;;;;;2.15;88.19;101987.63;4960924;28;20504;-74
2022/03/07 00:18:56;;;;;;;8.95;3.53;;;;;;;2.13;87.74;101989.75;4951389;23;20046;-69
2022/03/07 00:21:22;;;;;;;9.57;3.10;;;;;;;2.11;88.47;101997.19;4951250;28;20035;-69
2022/03/07 00:23:47;;;;;;;8.05;3.35;;;;;;;2.10;87.82;101995.56;4971454;28;20741;-69
2022/03/07 00:26:13;;;;;;;9.73;3.38;;;;;;;2.09;88.45;101989.44;4971197;28;20054;-69
2022/03/07 00:28:38;;;;;;;7.82;3.25;;;;;;;2.08;88.32;101992.38;4973429;28;20030;-70
2022/03/07 00:31:05;;;;;;;5.45;2.63;;;;;;;2.07;88.95;101996.09;4973557;28;20025;-69
2022/03/07 00:33:31;;;;;;;9.40;3.13;;;;;;;2.03;88.50;101995.84;4975838;28;20042;-69
2022/03/07 00:35:56;;;;;;;5.47;2.90;;;;;;;2.05;88.79;102006.19;4965053;28;20046;-69
2022/03/07 00:38:23;;;;;;;5.78;3.10;;;;;;;2.06;88.37;102005.94;4989419;28;20096;-69
2022/03/07 00:40:48;;;;;;;6.28;2.83;;;;;;;2.05;88.44;102004.34;4990949;28;20057;-69
2022/03/07 00:43:14;;;;;;;5.45;3.38;;;;;;;2.04;88.67;102009.91;4973155;28;20069;-69
2022/03/07 00:45:39;;;;;;;8.45;3.70;;;;;;;2.05;88.78;102017.63;4960059;28;20076;-69
2022/03/07 00:48:05;;;;;;;6.18;2.95;;;;;;;2.04;88.76;102007.25;4967879;28;20486;-68
2022/03/07 00:50:31;;;;;;;7.82;2.95;;;;;;;1.98;88.23;102010.94;4966765;28;20057;-69
2022/03/07 00:52:57;;;;;;;5.68;3.00;;;;;;;1.93;88.54;102010.94;4999850;28;20435;-69
2022/03/07 00:55:22;;;;;;;5.50;2.85;;;;;;;1.90;89.38;102001.66;4972730;28;20050;-68
2022/03/07 00:57:48;;;;;;;6.22;2.90;;;;;;;1.86;88.95;102003.22;4957950;28;20049;-68
2022/03/07 01:00:13;;;;;;;4.10;2.72;;;;;;;1.84;89.66;102003.50;4972695;28;20038;-69
2022/03/07 01:02:40;;;;;;;6.63;3.05;;;;;;;1.80;90.20;102009.63;4973092;28;20034;-69
2022/03/07 01:05:07;;;;;;;9.43;2.42;;;;;;;1.78;90.11;102007.19;4990064;28;20081;-69
2022/03/07 01:07:32;;;;;;;6.57;2.92;;;;;;;1.80;90.06;102001.66;4988262;28;20038;-70
2022/03/07 01:09:58;;;;;;;5.35;2.92;;;;;;;1.80;90.07;101999.78;4969317;28;20454;-69
2022/03/07 01:12:23;;;;;;;7.13;3.08;;;;;;;1.78;90.38;102012.50;4984103;28;20038;-69
2022/03/07 01:14:49;;;;;;;6.00;2.92;;;;;;;1.78;90.16;102009.09;4951054;28;20449;-69
2022/03/07 01:17:14;;;;;;;8.98;2.85;;;;;;;1.79;90.37;102018.63;4959922;28;20265;-69
2022/03/07 01:19:40;;;;;;;6.28;2.92;;;;;;;1.78;90.61;102020.47;4977042;28;20038;-69
2022/03/07 01:22:05;;;;;;;5.22;3.03;;;;;;;1.77;90.29;102016.25;4984500;28;20041;-69
2022/03/07 01:24:31;;;;;;;3.85;2.72;;;;;;;1.75;90.19;102023.66;4986596;28;20151;-69
2022/03/07 01:26:56;;;;;;;10.68;3.00;;;;;;;1.71;90.28;102016.47;4987671;28;20536;-69
2022/03/07 01:29:22;;;;;;;6.20;2.92;;;;;;;1.68;90.18;102017.78;4976251;28;20052;-69
2022/03/07 01:31:47;;;;;;;8.20;2.92;;;;;;;1.68;90.42;102020.44;4994200;28;20034;-68
2022/03/07 01:34:13;;;;;;;6.18;3.03;;;;;;;1.65;90.89;102015.66;4988890;28;20129;-70
2022/03/07 01:36:41;;;;;;;9.98;2.70;;;;;;;1.66;90.46;102014.63;4991769;28;20039;-69
2022/03/07 01:39:06;;;;;;;4.20;3.15;;;;;;;1.65;90.58;102015.66;4989955;28;20100;-69
2022/03/07 01:41:32;;;;;;;5.05;2.58;;;;;;;1.63;91.17;102017.78;4975803;28;20042;-69
2022/03/07 01:43:57;;;;;;;4.82;3.33;;;;;;;1.61;90.74;102017.25;4986508;28;20121;-68
2022/03/07 01:46:23;;;;;;;7.38;3.10;;;;;;;1.63;90.82;102001.06;4994622;28;20481;-69
2022/03/07 01:48:49;;;;;;;7.47;3.47;;;;;;;1.59;90.52;102005.28;4984694;28;20125;-69
2022/03/07 01:51:16;;;;;;;6.88;3.05;;;;;;;1.54;90.96;102003.44;4960446;28;20176;-69
2022/03/07 01:53:43;;;;;;;5.45;2.50;;;;;;;1.51;91.14;101995.97;4974625;28;20089;-70
2022/03/07 01:56:12;;;;;;;4.63;2.42;;;;;;;1.50;91.14;101998.91;4975965;28;20054;-70
2022/03/07 01:58:37;;;;;;;5.45;2.45;;;;;;;1.51;91.30;102001.28;4974804;28;20069;-70
2022/03/07 02:01:03;;;;;;;7.68;3.15;;;;;;;1.52;90.90;101994.13;4976017;28;20030;-69
2022/03/07 02:03:28;;;;;;;8.77;3.80;;;;;;;1.50;91.17;101996.25;4979603;28;20122;-69
2022/03/07 02:05:54;;;;;;;9.43;3.28;;;;;;;1.46;91.44;101995.16;4969705;28;20469;-70
2022/03/07 02:08:24;;;;;;;9.98;3.20;;;;;;;1.42;91.16;101996.75;4969175;28;20028;-69
2022/03/07 02:10:57;;;;;;;6.60;3.53;;;;;;;1.40;91.50;101998.88;4975833;28;20031;-69
2022/03/07 02:13:24;;;;;;;5.88;2.63;;;;;;;1.39;91.35;101992.78;4970877;28;20035;-68
2022/03/07 02:15:56;;;;;;;7.88;3.35;;;;;;;1.41;91.63;101998.63;4951413;28;20482;-68
2022/03/07 02:18:24;;;;;;;7.28;2.55;;;;;;;1.37;91.83;101994.91;4975711;28;20026;-69
2022/03/07 02:20:56;;;;;;;6.80;2.67;;;;;;;1.40;91.43;101997.00;4981872;28;20367;-69
2022/03/07 02:23:22;;;;;;;5.00;2.70;;;;;;;1.37;91.32;101992.25;4977174;28;20034;-69
2022/03/07 02:25:48;;;;;;;5.68;2.45;;;;;;;1.34;91.19;101987.44;4975191;28;20065;-69
2022/03/07 02:28:15;;;;;;;6.88;2.75;;;;;;;1.32;90.51;101984.25;4956317;28;20033;-69
2022/03/07 02:30:41;;;;;;;8.35;3.55;;;;;;;1.26;90.74;101984.50;4967065;28;20026;-69
2022/03/07 02:33:13;;;;;;;5.25;2.67;;;;;;;1.27;90.75;101989.53;4974789;28;20419;-69
2022/03/07 02:35:39;;;;;;;4.85;2.40;;;;;;;1.28;91.21;101983.16;4975514;28;20042;-69
2022/03/07 02:38:13;;;;;;;5.22;2.50;;;;;;;1.29;91.20;101982.13;4987547;28;20108;-69
2022/03/07 02:40:41;;;;;;;3.05;2.08;;;;;;;1.29;90.76;101982.13;4978659;28;20037;-69
2022/03/07 02:43:07;;;;;;;7.57;2.45;;;;;;;1.29;90.79;101989.28;4973596;28;20030;-69
2022/03/07 02:45:33;;;;;;;3.63;2.67;;;;;;;1.25;91.22;101994.31;4975429;28;20031;-69
2022/03/07 02:47:58;;;;;;;3.65;2.10;;;;;;;1.19;90.40;101987.38;4974420;28;20034;-68
2022/03/07 02:50:24;;;;;;;3.78;2.10;;;;;;;1.17;90.93;101983.38;4972685;28;20567;-68
2022/03/07 02:52:49;;;;;;;6.25;2.45;;;;;;;1.12;90.88;101981.53;4966032;28;20105;-69
2022/03/07 02:55:15;;;;;;;3.80;2.30;;;;;;;1.12;91.61;101978.88;4959968;28;20034;-69
2022/03/07 02:57:40;;;;;;;2.85;2.05;;;;;;;1.12;91.42;101978.88;4976459;28;20041;-69
2022/03/07 03:00:06;;;;;;;4.70;2.35;;;;;;;1.14;91.26;101983.91;4973082;28;20190;-69
2022/03/07 03:02:32;;;;;;;7.82;2.80;;;;;;;1.17;91.20;101992.16;4972361;28;20475;-69
2022/03/07 03:04:57;;;;;;;6.43;2.80;;;;;;;1.14;90.80;101979.41;4972400;28;20030;-70
2022/03/07 03:07:22;;;;;;;6.53;3.33;;;;;;;1.14;90.99;101981.25;4983685;28;20128;-69
2022/03/07 03:09:48;;;;;;;4.85;2.28;;;;;;;1.13;91.31;101982.31;4971557;28;20538;-69
2022/03/07 03:12:13;;;;;;;4.65;2.67;;;;;;;1.12;91.10;101984.19;4986947;28;20034;-69
2022/03/07 03:14:39;;;;;;;5.68;2.65;;;;;;;1.12;91.20;101984.19;4987014;28;20066;-69
2022/03/07 03:17:05;;;;;;;3.58;2.22;;;;;;;1.13;91.02;101991.06;4992261;28;20445;-69
2022/03/07 03:19:30;;;;;;;6.32;3.13;;;;;;;1.12;91.14;101986.84;4987431;28;20097;-68
2022/03/07 03:21:56;;;;;;;3.70;2.35;;;;;;;1.12;91.45;101989.50;4987963;28;20057;-69
2022/03/07 03:24:21;;;;;;;5.13;2.45;;;;;;;1.12;91.53;101993.97;4979417;28;20035;-68
2022/03/07 03:26:46;;;;;;;8.82;2.63;;;;;;;1.08;91.35;101988.41;4975632;28;20038;-69
2022/03/07 03:29:12;;;;;;;6.18;2.83;;;;;;;1.09;91.45;101992.63;4991216;28;20034;-69
2022/03/07 03:31:37;;;;;;;5.97;2.78;;;;;;;1.06;91.53;101990.50;4969075;28;20109;-68
2022/03/07 03:34:03;;;;;;;4.50;2.78;;;;;;;1.04;91.99;101992.63;4980143;28;20049;-69
2022/03/07 03:36:28;;;;;;;7.78;3.03;;;;;;;1.03;91.76;101995.53;4985416;28;20430;-69
2022/03/07 03:38:53;;;;;;;5.28;2.58;;;;;;;0.99;91.91;102003.19;4973555;28;20039;-69
2022/03/07 03:41:19;;;;;;;8.40;2.63;;;;;;;0.97;92.20;102002.66;4965780;28;20035;-69
2022/03/07 03:43:44;;;;;;;7.45;2.90;;;;;;;0.97;92.34;102007.94;4988208;28;20042;-69
2022/03/07 03:46:10;;;;;;;5.50;2.83;;;;;;;0.96;92.37;102003.72;4962498;28;20506;-69
2022/03/07 03:48:35;;;;;;;10.02;2.90;;;;;;;0.95;92.14;102004.75;4973678;28;20072;-69
2022/03/07 03:51:01;;;;;;;5.53;2.38;;;;;;;0.97;92.41;102007.16;4987588;28;20541;-69
2022/03/07 03:53:27;;;;;;;5.65;3.08;;;;;;;0.93;92.45;102011.38;4991199;28;20042;-69
2022/03/07 03:55:52;;;;;;;8.00;2.70;;;;;;;0.91;93.03;102009.78;4989919;28;20088;-69
2022/03/07 03:58:18;;;;;;;5.32;2.78;;;;;;;0.93;92.72;102007.66;4965345;28;20071;-69
2022/03/07 04:00:43;;;;;;;6.80;2.65;;;;;;;0.92;92.99;102007.94;4961694;28;20042;-69
2022/03/07 04:03:08;;;;;;;6.88;2.95;;;;;;;0.92;92.83;102010.59;4988637;28;20035;-69
2022/03/07 04:05:34;;;;;;;4.68;2.63;;;;;;;0.91;93.06;102019.56;4991345;28;20113;-69
2022/03/07 04:07:59;;;;;;;3.72;2.53;;;;;;;0.88;93.32;102012.16;4988666;28;20490;-69
2022/03/07 04:10:24;;;;;;;6.05;2.67;;;;;;;0.87;93.56;102015.88;4973121;28;20196;-69
2022/03/07 04:12:50;;;;;;;7.50;3.00;;;;;;;0.86;93.62;102019.56;4981574;28;20050;-69
2022/03/07 04:15:16;;;;;;;3.78;3.03;;;;;;;0.88;93.90;102015.59;4959730;28;20031;-69
2022/03/07 04:17:42;;;;;;;12.05;2.78;;;;;;;0.92;94.17;102018.53;4973912;28;20039;-69
2022/03/07 04:20:08;;;;;;;9.23;3.58;;;;;;;0.93;94.29;102022.78;4985004;28;20046;-70
2022/03/07 04:22:36;;;;;;;3.95;2.55;;;;;;;0.93;94.33;102017.47;4990367;28;20121;-69
2022/03/07 04:25:02;;;;;;;6.63;2.67;;;;;;;0.93;94.42;102022.78;4974696;28;20026;-69
2022/03/07 04:27:28;;;;;;;6.60;2.65;;;;;;;0.93;94.41;102022.78;4984407;28;20510;-70
2022/03/07 04:29:54;;;;;;;4.93;2.47;;;;;;;0.91;94.41;102019.56;4973641;28;20038;-69
2022/03/07 04:32:21;;;;;;;3.42;2.20;;;;;;;0.86;93.99;102008.94;4957366;28;20403;-69
2022/03/07 04:34:47;;;;;;;5.47;2.03;;;;;;;0.86;94.14;102012.41;4965145;28;20639;-70
2022/03/07 04:37:12;;;;;;;3.78;2.25;;;;;;;0.85;94.01;102008.16;4985990;28;20058;-69
2022/03/07 04:39:37;;;;;;;6.93;1.95;;;;;;;0.84;93.99;102009.22;4989425;28;20037;-69
2022/03/07 04:42:03;;;;;;;8.25;3.08;;;;;;;0.84;93.73;102003.91;4987878;28;20056;-69
2022/03/07 04:44:29;;;;;;;3.53;2.17;;;;;;;0.80;93.56;101999.38;4985840;28;20069;-68
2022/03/07 04:46:54;;;;;;;7.88;2.70;;;;;;;0.81;93.81;101995.69;4990613;28;20034;-68
2022/03/07 04:49:19;;;;;;;5.38;3.08;;;;;;;0.82;93.77;101997.25;4975651;28;20369;-69
2022/03/07 04:51:46;;;;;;;4.95;2.20;;;;;;;0.78;93.60;102009.44;4977563;28;20030;-69
2022/03/07 04:54:15;;;;;;;5.95;2.25;;;;;;;0.74;93.18;101997.75;4961052;28;20506;-69
2022/03/07 04:56:43;;;;;;;6.80;2.63;;;;;;;0.70;93.53;102001.94;4991405;28;20049;-70
2022/03/07 04:59:11;;;;;;;8.18;3.13;;;;;;;0.68;93.32;101998.75;4980181;28;20045;-70
2022/03/07 05:01:36;;;;;;;4.68;2.58;;;;;;;0.68;93.32;102009.34;4982293;28;20045;-69
2022/03/07 05:04:02;;;;;;;5.10;2.80;;;;;;;0.67;93.45;102024.47;4972983;28;20042;-68
2022/03/07 05:06:27;;;;;;;3.03;2.35;;;;;;;0.69;93.75;102018.91;4989524;28;20177;-69
2022/03/07 05:08:53;;;;;;;3.50;2.13;;;;;;;0.69;93.46;102022.38;4972823;28;20041;-70
2022/03/07 05:11:18;;;;;;;3.20;2.47;;;;;;;0.73;93.12;102012.06;4987239;28;20073;-70
2022/03/07 05:13:43;;;;;;;6.10;3.00;;;;;;;0.72;93.39;102021.84;4989318;28;20030;-69
2022/03/07 05:16:09;;;;;;;6.20;2.92;;;;;;;0.70;92.98;102016.00;4986124;28;20027;-69
2022/03/07 05:18:34;;;;;;;4.50;2.25;;;;;;;0.68;92.76;102015.47;4986108;28;20172;-69
2022/03/07 05:21:00;;;;;;;8.27;2.85;;;;;;;0.67;92.95;102015.72;4957036;28;20493;-70
2022/03/07 05:23:25;;;;;;;4.90;2.78;;;;;;;0.67;92.87;102013.88;4971270;28;20046;-69
2022/03/07 05:25:51;;;;;;;4.93;2.58;;;;;;;0.64;92.76;102018.91;4956420;28;20143;-69
2022/03/07 05:28:16;;;;;;;2.42;2.22;;;;;;;0.64;93.05;102011.72;4953782;28;20093;-70
2022/03/07 05:30:42;;;;;;;7.88;2.92;;;;;;;0.65;93.13;102023.13;4982778;28;20038;-69
2022/03/07 05:33:07;;;;;;;8.95;3.67;;;;;;;0.67;92.94;102034.28;4986645;28;20061;-69
2022/03/07 05:35:32;;;;;;;4.82;2.63;;;;;;;0.68;92.86;102026.06;4963460;28;20533;-68
2022/03/07 05:37:58;;;;;;;5.43;2.45;;;;;;;0.67;93.26;102028.97;4979707;28;20071;-69
2022/03/07 05:40:23;;;;;;;5.53;3.05;;;;;;;0.70;93.45;102031.91;4957090;28;20054;-69
2022/03/07 05:42:49;;;;;;;11.20;2.65;;;;;;;0.70;93.47;102034.56;4969881;28;20073;-68
2022/03/07 05:45:15;;;;;;;3.22;2.33;;;;;;;0.71;93.58;102030.06;4990366;28;20031;-69
2022/03/07 05:47:41;;;;;;;3.33;2.55;;;;;;;0.71;93.82;102032.72;4996713;28;20041;-69
2022/03/07 05:50:08;;;;;;;4.82;2.50;;;;;;;0.72;93.86;102023.69;4996914;28;20052;-69
2022/03/07 05:52:34;;;;;;;3.95;2.38;;;;;;;0.74;94.27;102035.66;4970770;28;20105;-68
2022/03/07 05:54:59;;;;;;;9.20;2.42;;;;;;;0.76;94.25;102038.03;4959290;28;20046;-69
2022/03/07 05:57:25;;;;;;;6.57;3.30;;;;;;;0.75;94.33;102034.63;4971915;28;20038;-70
2022/03/07 05:59:50;;;;;;;7.22;3.30;;;;;;;0.75;94.69;102039.09;4968729;28;20034;-69
2022/03/07 06:02:16;;;;;;;4.95;2.72;;;;;;;0.78;94.71;102041.22;4967111;28;20392;-69
2022/03/07 06:04:42;;;;;;;2.67;2.17;;;;;;;0.78;94.47;102047.34;4987691;28;20036;-69
2022/03/07 06:07:07;;;;;;;4.63;2.30;;;;;;;0.78;94.56;102039.38;4986913;28;20038;-69
2022/03/07 06:09:33;;;;;;;5.85;2.47;;;;;;;0.79;94.54;102027.72;4986009;28;20097;-69
2022/03/07 06:11:58;;;;;;;3.38;2.50;;;;;;;0.81;94.68;102030.91;4983411;28;20042;-69
2022/03/07 06:14:24;;;;;;;3.97;2.40;;;;;;;0.83;94.72;102038.63;4980770;28;20474;-69
2022/03/07 06:16:49;;;;;;;4.60;2.88;;;;;;;0.81;94.61;102041.53;4973431;28;20030;-70
2022/03/07 06:19:15;;;;;;;6.13;3.60;;;;;;;0.83;94.67;102035.97;4972302;28;20030;-68
2022/03/07 06:21:40;;;;;;;5.30;3.08;;;;;;;0.87;94.77;102043.16;4980232;28;20113;-68
2022/03/07 06:24:06;;;;;;;8.45;3.45;;;;;;;0.87;94.71;102043.16;4973896;28;20030;-69
2022/03/07 06:26:32;;;;;;;6.72;3.65;;;;;;;0.88;94.92;102046.59;4984485;28;20069;-70
2022/03/07 06:28:58;;;;;;;12.35;3.40;;;;;;;0.90;94.90;102044.50;4985245;28;20093;-69
2022/03/07 06:31:23;;;;;;;7.13;3.75;;;;;;;0.90;95.02;102044.50;4988380;28;20038;-70
2022/03/07 06:33:48;;;;;;;11.63;3.08;;;;;;;0.95;95.19;102046.41;4985819;28;20038;-70
2022/03/07 06:36:14;;;;;;;5.32;3.15;;;;;;;0.96;95.17;102046.13;4987000;28;20446;-69
2022/03/07 06:38:40;;;;;;;5.78;3.72;;;;;;;0.98;95.64;102044.03;4971935;28;20099;-68
2022/03/07 06:41:06;;;;;;;7.88;3.33;;;;;;;1.02;95.36;102036.34;4982912;28;20035;-70
2022/03/07 06:43:31;;;;;;;5.70;2.70;;;;;;;1.07;95.64;102050.44;4968203;28;20585;-69
2022/03/07 06:45:57;;;;;;;4.07;2.80;;;;;;;1.09;95.88;102037.72;4974004;28;20590;-70
2022/03/07 06:48:23;;;;;;;6.40;3.10;;;;;;;1.11;95.69;102040.91;4965498;28;20030;-68
2022/03/07 06:50:48;;;;;;;9.02;3.85;;;;;;;1.12;95.48;102039.88;4984790;28;20458;-70
2022/03/07 06:53:14;;;;;;;6.22;3.35;;;;;;;1.14;95.46;102032.47;4985933;28;20034;-69
2022/03/07 06:55:39;;;;;;;5.45;3.10;;;;;;;1.17;95.74;102045.19;4950761;28;20133;-69
2022/03/07 06:58:05;;;;;;;7.30;3.47;;;;;;;1.20;95.88;102049.97;4971339;28;20038;-68
2022/03/07 07:00:31;;;;;;;4.38;2.70;;;;;;;1.23;95.89;102036.22;4974013;28;20721;-69
2022/03/07 07:02:56;;;;;;;7.45;2.67;;;;;;;1.25;96.15;102036.75;4984361;28;20093;-68
2022/03/07 07:05:22;;;;;;;9.93;3.25;;;;;;;1.28;96.20;102041.53;4982308;28;20042;-70
2022/03/07 07:07:47;;;;;;;4.90;3.75;;;;;;;1.29;96.10;102031.72;4984382;28;20027;-69
2022/03/07 07:10:15;;;;;;;6.97;3.45;;;;;;;1.33;96.45;102038.09;4989080;28;20398;-68
2022/03/07 07:12:41;;;;;;;6.60;2.95;;;;;;;1.35;96.38;102039.47;4985482;28;20533;-67
2022/03/07 07:15:07;;;;;;;4.88;3.35;;;;;;;1.38;96.91;102040.78;4985771;28;20035;-69
2022/03/07 07:17:33;;;;;;;12.18;4.22;;;;;;;1.39;96.81;102045.84;4969509;28;20109;-69
2022/03/07 07:19:59;;;;;;;8.75;3.97;;;;;;;1.46;97.02;102049.03;4986909;28;20041;-68
2022/03/07 07:22:24;;;;;;;7.28;3.42;;;;;;;1.54;97.29;102045.09;4989036;28;20527;-69
2022/03/07 07:24:51;;;;;;;13.45;4.15;;;;;;;1.60;97.23;102039.56;4971997;28;20062;-70
2022/03/07 07:27:16;;;;;;;4.75;2.47;;;;;;;1.66;97.20;102051.78;4987204;28;20043;-70
2022/03/07 07:29:42;;;;;;;7.32;3.40;;;;;;;1.75;97.13;102052.06;4982488;28;20450;-69
2022/03/07 07:32:07;;;;;;;18.95;5.05;;;;;;;1.85;97.37;102057.41;4991918;28;20054;-69
2022/03/07 07:34:33;;;;;;;7.53;3.40;;;;;;;1.97;97.29;102051.88;4971035;28;20136;-69
2022/03/07 07:36:58;;;;;;;7.32;3.63;;;;;;;2.09;97.61;102057.72;4991688;28;20046;-69
2022/03/07 07:39:24;;;;;;;7.80;3.88;;;;;;;2.24;97.71;102045.28;4986350;28;20406;-69
2022/03/07 07:41:49;;;;;;;12.02;4.18;;;;;;;2.40;97.25;102056.72;4991513;28;20040;-70
2022/03/07 07:44:16;;;;;;;5.47;3.22;;;;;;;2.57;97.23;102055.38;4967618;28;20577;-69
2022/03/07 07:46:42;;;;;;;9.25;4.13;;;;;;;2.73;97.63;102056.94;4985844;28;20040;-71
2022/03/07 07:49:08;;;;;;;9.52;3.63;;;;;;;2.93;97.45;102069.44;4987310;28;20100;-69
2022/03/07 07:51:33;;;;;;;6.45;4.03;;;;;;;3.14;96.96;102063.00;4972460;28;20030;-69
2022/03/07 07:54:00;;;;;;;15.48;4.75;;;;;;;3.36;96.50;102068.81;4970475;28;20573;-70
2022/03/07 07:56:26;;;;;;;7.47;4.28;;;;;;;3.49;95.86;102070.88;4980224;28;20089;-69
2022/03/07 07:58:51;;;;;;;9.25;3.25;;;;;;;3.64;95.66;102070.81;4966729;28;20074;-69
2022/03/07 08:01:17;;;;;;;7.80;3.88;;;;;;;3.81;95.33;102072.34;4970798;28;20030;-70
2022/03/07 08:03:42;;;;;;;7.28;3.15;;;;;;;3.97;94.83;102069.31;4988513;28;20049;-71
2022/03/07 08:06:08;;;;;;;7.57;3.80;;;;;;;4.11;94.33;102064.19;4981891;28;20026;-69
2022/03/07 08:08:33;;;;;;;7.72;3.58;;;;;;;4.18;93.80;102070.78;4985835;28;20062;-70
2022/03/07 08:10:58;;;;;;;8.45;3.53;;;;;;;4.32;93.07;102070.97;4988508;28;20372;-71
2022/03/07 08:13:24;;;;;;;9.77;3.83;;;;;;;4.44;92.12;102072.22;4989822;28;20477;-69
2022/03/07 08:15:49;;;;;;;5.97;3.30;;;;;;;4.53;92.03;102075.88;4972478;28;20046;-69
2022/03/07 08:18:15;;;;;;;6.65;3.25;;;;;;;4.63;91.23;102077.66;4971026;28;20108;-71
2022/03/07 08:20:40;;;;;;;7.63;3.53;;;;;;;4.80;91.13;102079.94;4986412;28;20069;-70
2022/03/07 08:23:06;;;;;;;8.48;3.97;;;;;;;4.93;91.22;102074.75;4988981;28;20113;-69
2022/03/07 08:25:32;;;;;;;8.40;4.10;;;;;;;5.11;90.18;102074.00;4969258;28;20026;-71
2022/03/07 08:27:58;;;;;;;7.05;3.72;;;;;;;5.22;89.52;102070.16;4984766;28;20049;-69
2022/03/07 08:30:25;;;;;;;8.00;4.18;;;;;;;5.34;89.29;102077.78;4971145;28;20141;-70
2022/03/07 08:32:51;;;;;;;3.65;3.03;;;;;;;5.35;88.21;102074.81;4980192;28;20479;-70
2022/03/07 08:35:17;;;;;;;6.32;3.10;;;;;;;5.55;88.46;102073.81;4987317;28;20615;-69
2022/03/07 08:37:45;;;;;;;7.25;3.35;;;;;;;5.72;87.62;102067.97;4986827;28;20137;-70
2022/03/07 08:40:12;;;;;;;10.77;3.90;;;;;;;5.83;86.94;102082.78;4980156;28;20030;-71
2022/03/07 08:42:37;;;;;;;6.28;3.30;;;;;;;5.94;86.45;102081.63;4983098;28;20584;-70
2022/03/07 08:45:04;;;;;;;5.57;3.17;;;;;;;6.04;86.11;102084.94;4970622;28;20045;-69
2022/03/07 08:47:29;;;;;;;6.68;2.70;;;;;;;6.21;85.83;102084.44;4985899;28;20747;-69
2022/03/07 08:49:56;;;;;;;6.32;3.38;;;;;;;6.41;84.96;102081.44;4987192;28;20189;-69
2022/03/07 08:52:21;;;;;;;6.03;3.00;;;;;;;6.64;84.87;102082.44;4983251;28;20038;-68
2022/03/07 08:54:47;;;;;;;5.45;3.17;;;;;;;6.75;83.89;102091.88;4984516;28;20034;-69
2022/03/07 08:57:13;;;;;;;4.18;2.38;;;;;;;6.98;83.51;102088.28;4984367;28;20030;-69
2022/03/07 08:59:39;;;;;;;5.82;3.03;;;;;;;7.15;83.01;102086.63;4986279;28;20061;-68
2022/03/07 09:02:05;;;;;;;4.68;2.58;;;;;;;7.44;82.08;102088.22;4987042;28;20120;-68
2022/03/07 09:04:31;;;;;;;6.40;2.80;;;;;;;7.49;81.67;102085.44;4988655;28;20049;-69
2022/03/07 09:06:56;;;;;;;6.20;2.55;;;;;;;7.59;80.54;102099.44;4983884;28;20034;-69
2022/03/07 09:09:22;;;;;;;5.25;2.55;;;;;;;7.59;79.83;102102.09;4986211;28;20041;-70
2022/03/07 09:11:48;;;;;;;4.15;2.40;;;;;;;7.69;79.82;102095.75;4982376;28;20392;-69
2022/03/07 09:14:14;;;;;;;4.30;2.72;;;;;;;7.70;79.39;102092.00;4986656;28;20034;-67
2022/03/07 09:16:40;;;;;;;3.85;2.15;;;;;;;7.81;79.16;102085.31;4966872;28;20166;-67
2022/03/07 09:19:05;;;;;;;5.03;2.35;;;;;;;8.09;78.09;102084.19;4988331;28;20515;-67
2022/03/07 09:21:31;;;;;;;3.60;1.85;;;;;;;8.40;76.58;102095.81;4970714;28;20173;-68
2022/03/07 09:23:56;;;;;;;4.65;1.95;;;;;;;8.51;75.64;102096.38;4988675;28;20034;-67
2022/03/07 09:26:22;;;;;;;2.78;1.70;;;;;;;8.56;74.34;102094.34;4989584;28;20685;-67
2022/03/07 09:28:48;;;;;;;2.55;1.65;;;;;;;8.77;72.98;102092.75;4983610;28;20038;-67
2022/03/07 09:31:14;;;;;;;3.00;1.58;;;;;;;8.86;69.77;102087.44;4982896;28;20065;-66
2022/03/07 09:33:39;;;;;;;2.58;1.55;;;;;;;8.85;68.78;102092.03;4987268;28;20038;-67
2022/03/07 09:36:05;;;;;;;3.00;1.60;;;;;;;8.94;67.77;102090.16;4989963;28;20525;-67
2022/03/07 09:38:34;;;;;;;3.35;1.27;;;;;;;8.96;67.10;102092.56;4988512;28;20704;-67
2022/03/07 09:41:00;;;;;;;1.55;1.25;;;;;;;9.17;65.91;102090.94;4988808;28;20094;-67
2022/03/07 09:43:26;;;;;;;3.05;1.00;;;;;;;9.31;64.70;102093.53;4985596;28;20050;-67
2022/03/07 09:45:52;;;;;;;1.98;1.20;;;;;;;9.30;62.81;102091.94;4954218;28;20039;-66
2022/03/07 09:48:17;;;;;;;1.67;1.27;;;;;;;9.44;62.30;102103.38;4971254;28;20053;-67
2022/03/07 09:50:44;;;;;;;1.55;1.17;;;;;;;9.61;60.55;102092.66;4981481;28;20051;-67
2022/03/07 09:53:09;;;;;;;2.33;1.27;;;;;;;9.69;59.47;102094.59;4982648;28;20043;-67
2022/03/07 09:55:36;;;;;;;2.70;1.05;;;;;;;9.54;60.41;102101.19;4986021;28;20069;-66
2022/03/07 09:58:03;;;;;;;2.47;1.58;;;;;;;9.44;60.34;102096.13;4986602;28;20048;-66
2022/03/07 10:00:29;;;;;;;3.00;1.33;;;;;;;9.37;59.92;102095.75;4997879;28;20076;-66
2022/03/07 10:03:04;;;;;;;3.05;1.55;;;;;;;9.48;59.15;102090.91;4992604;28;20046;-67
2022/03/07 10:05:33;;;;;;;3.20;1.10;;;;;;;9.56;59.04;102085.53;4975879;28;20034;-68
2022/03/07 10:07:59;;;;;;;4.78;1.75;;;;;;;9.73;58.28;102093.66;4971797;28;20054;-66
2022/03/07 10:10:33;;;;;;;1.30;1.02;;;;;;;9.79;57.21;102094.31;4989657;28;20038;-67
2022/03/07 10:13:05;;;;;;;1.17;1.02;;;;;;;9.64;56.72;102095.53;4986771;28;20064;-67
2022/03/07 10:15:31;;;;;;;1.50;0.98;;;;;;;9.45;55.96;102095.00;4973924;28;20042;-67
2022/03/07 10:17:57;;;;;;;2.05;1.10;;;;;;;9.44;56.03;102098.81;4988652;28;20022;-66
2022/03/07 10:20:24;;;;;;;1.42;1.17;;;;;;;9.39;56.82;102090.09;4991526;28;20514;-67
2022/03/07 10:22:52;;;;;;;1.10;1.00;;;;;;;9.41;57.51;102098.59;4991697;28;20038;-67
2022/03/07 10:25:29;;;;;;;1.42;0.77;;;;;;;9.66;56.96;102100.59;4975447;28;20447;-69
2022/03/07 10:27:57;;;;;;;1.05;0.85;;;;;;;9.78;56.71;102096.19;4984883;28;20053;-68
2022/03/07 10:30:26;;;;;;;3.88;0.98;;;;;;;9.74;55.78;102091.75;4973853;28;20041;-69
2022/03/07 10:32:55;;;;;;;1.00;0.80;;;;;;;9.78;55.39;102103.47;4987379;28;20471;-69
2022/03/07 10:35:25;;;;;;;1.15;1.00;;;;;;;9.81;55.74;102097.47;4983279;28;20072;-69
2022/03/07 10:37:55;;;;;;;0.70;0.70;;;;;;;9.87;55.56;102093.53;4969047;28;20125;-68
2022/03/07 10:40:22;;;;;;;0.70;0.65;;;;;;;9.81;54.26;102097.47;4966719;28;20054;-70
2022/03/07 10:42:49;;;;;;;2.17;1.00;;;;;;;10.01;54.65;102103.03;4987768;28;20042;-69
2022/03/07 10:45:15;;;;;;;2.08;0.90;;;;;;;10.09;54.63;102100.66;4987664;28;20106;-69
2022/03/07 10:47:41;;;;;;;1.95;0.85;;;;;;;10.04;53.11;102098.94;4970773;28;20045;-69
2022/03/07 10:50:07;;;;;;;2.22;0.77;;;;;;;10.03;52.68;102100.84;4981446;28;20035;-68
2022/03/07 10:52:41;;;;;;;1.85;1.05;;;;;;;10.02;52.00;102098.47;4970011;28;20050;-69
2022/03/07 10:55:09;;;;;;;1.33;0.77;;;;;;;10.13;51.43;102093.56;4988476;28;20038;-69
2022/03/07 10:57:37;;;;;;;1.05;0.85;;;;;;;10.08;50.85;102102.59;4986730;28;20043;-68
2022/03/07 11:00:16;;;;;;;1.60;0.90;;;;;;;10.14;50.81;102098.66;4989390;28;20049;-68
2022/03/07 11:02:46;;;;;;;1.40;0.95;;;;;;;10.17;50.93;102099.91;4987180;28;20038;-69
2022/03/07 11:05:14;;;;;;;1.70;0.77;;;;;;;10.25;51.01;102102.63;4989611;28;20030;-69
2022/03/07 11:07:42;;;;;;;2.55;1.20;;;;;;;10.38;50.41;102095.47;4970341;28;20038;-69
2022/03/07 11:10:10;;;;;;;2.80;1.17;;;;;;;10.32;50.91;102111.00;4969460;28;20055;-68
2022/03/07 11:12:36;;;;;;;1.38;0.75;;;;;;;10.37;50.64;102097.41;4988006;28;20447;-68
2022/03/07 11:15:10;;;;;;;2.22;0.90;;;;;;;10.43;50.66;102093.41;4986695;28;20046;-69
2022/03/07 11:17:41;;;;;;;1.23;0.80;;;;;;;10.45;49.91;102101.19;4987296;28;20062;-68
2022/03/07 11:20:09;;;;;;;1.00;0.90;;;;;;;10.42;50.25;102097.22;4989727;28;20088;-69
2022/03/07 11:22:34;;;;;;;1.80;1.10;;;;;;;10.51;50.32;102106.09;4989560;28;20030;-69
2022/03/07 11:25:01;;;;;;;1.98;0.93;;;;;;;10.51;49.25;102095.31;4973893;28;20147;-69
2022/03/07 11:27:28;;;;;;;1.02;0.65;;;;;;;10.57;48.16;102083.28;4988707;28;20096;-69